Frontier, North Dakota
Current Conditions -  °F | °C
As of 2:53 AM on Saturday 25 Oct 2014 (Local Time) from KFAR Reporting Station
Clear Clear  
Wind Chill: 40°   Ceiling: Unl
Heat Index: 45°   Visibility: 10mi
Dew Point: 31°   Wind: 10mph
Humidity: 58%   Direction: 260°W
Pressure: 30"   Gusts: NA
Location:  46.8079°N, 96.8643°W
Report Text: KFAR 250753Z AUTO 26009KT 10SM CLR 07/M01 A3000 RMK AO2 SLP159 T00721006 TSNO
Loading
Personal Weather Stations






























Interactive Weather Map
Tropical Storm Tracking
New forecast layout! Learn more

10-Day Weather Forecast

Advertisements
Track Severe Weather on mobile